sensor_id;sensor_type;location;lat;lon;timestamp;pressure;altitude;pressure_sealevel;temperature;humidity
57376;BME280;44805;45.048;5.062;2023-05-22T00:00:28;99491.06;;;15.40;100.00
57376;BME280;44805;45.048;5.062;2023-05-22T00:02:59;99474.75;;;15.22;100.00
57376;BME280;44805;45.048;5.062;2023-05-22T00:05:27;99464.25;;;15.14;100.00
57376;BME280;44805;45.048;5.062;2023-05-22T00:07:52;99481.47;;;15.39;100.00
57376;BME280;44805;45.048;5.062;2023-05-22T00:10:18;99424.59;;;14.91;100.00
57376;BME280;44805;45.048;5.062;2023-05-22T00:12:43;99488.81;;;15.23;100.00
57376;BME280;44805;45.048;5.062;2023-05-22T00:15:09;99481.63;;;15.02;100.00
57376;BME280;44805;45.048;5.062;2023-05-22T00:17:36;99466.53;;;15.02;100.00
57376;BME280;44805;45.048;5.062;2023-05-22T00:20:02;99479.94;;;15.01;100.00
57376;BME280;44805;45.048;5.062;2023-05-22T00:22:35;99445.03;;;14.82;100.00
57376;BME280;44805;45.048;5.062;2023-05-22T00:25:05;99462.56;;;14.83;100.00
57376;BME280;44805;45.048;5.062;2023-05-22T00:27:32;99384.81;;;14.46;100.00
57376;BME280;44805;45.048;5.062;2023-05-22T00:29:58;99465.31;;;15.05;100.00
57376;BME280;44805;45.048;5.062;2023-05-22T00:32:24;99422.38;;;14.65;100.00
57376;BME280;44805;45.048;5.062;2023-05-22T00:34:50;99461.88;;;14.89;100.00
57376;BME280;44805;45.048;5.062;2023-05-22T00:37:15;99427.69;;;14.65;100.00
57376;BME280;44805;45.048;5.062;2023-05-22T00:39:41;99423.78;;;14.52;100.00
57376;BME280;44805;45.048;5.062;2023-05-22T00:42:06;99441.28;;;14.62;100.00
57376;BME280;44805;45.048;5.062;2023-05-22T00:44:32;99384.53;;;14.41;100.00
57376;BME280;44805;45.048;5.062;2023-05-22T00:46:57;99478.97;;;14.87;100.00
57376;BME280;44805;45.048;5.062;2023-05-22T00:49:22;99464.34;;;14.76;100.00
57376;BME280;44805;45.048;5.062;2023-05-22T00:51:48;99471.81;;;14.87;100.00
57376;BME280;44805;45.048;5.062;2023-05-22T00:54:14;99419.38;;;14.53;100.00
57376;BME280;44805;45.048;5.062;2023-05-22T00:56:41;99402.78;;;14.36;100.00
57376;BME280;44805;45.048;5.062;2023-05-22T00:59:07;99456.28;;;14.69;100.00
57376;BME280;44805;45.048;5.062;2023-05-22T01:01:33;99414.44;;;14.27;100.00
57376;BME280;44805;45.048;5.062;2023-05-22T01:04:03;99414.81;;;14.24;100.00
57376;BME280;44805;45.048;5.062;2023-05-22T01:06:32;99434.47;;;14.44;100.00
57376;BME280;44805;45.048;5.062;2023-05-22T01:08:57;99482.53;;;14.79;100.00
57376;BME280;44805;45.048;5.062;2023-05-22T01:11:31;99454.97;;;14.50;100.00
57376;BME280;44805;45.048;5.062;2023-05-22T01:14:10;99446.81;;;14.52;100.00
57376;BME280;44805;45.048;5.062;2023-05-22T01:16:44;99481.69;;;14.64;100.00
57376;BME280;44805;45.048;5.062;2023-05-22T01:23:05;99425.03;;;14.27;100.00
57376;BME280;44805;45.048;5.062;2023-05-22T01:25:59;99462.25;;;14.48;100.00
57376;BME280;44805;45.048;5.062;2023-05-22T01:29:00;99478.81;;;14.50;100.00
57376;BME280;44805;45.048;5.062;2023-05-22T01:31:36;99410.25;;;14.18;100.00
57376;BME280;44805;45.048;5.062;2023-05-22T01:34:04;99368.56;;;13.82;100.00
57376;BME280;44805;45.048;5.062;2023-05-22T01:36:33;99397.88;;;13.95;100.00
57376;BME280;44805;45.048;5.062;2023-05-22T01:39:00;99370.63;;;13.72;100.00
57376;BME280;44805;45.048;5.062;2023-05-22T01:41:29;99417.06;;;13.97;100.00
57376;BME280;44805;45.048;5.062;2023-05-22T01:43:55;99458.56;;;14.20;100.00
57376;BME280;44805;45.048;5.062;2023-05-22T01:46:20;99422.38;;;13.89;100.00
57376;BME280;44805;45.048;5.062;2023-05-22T01:48:48;99396.44;;;13.70;100.00
57376;BME280;44805;45.048;5.062;2023-05-22T01:54:17;99477.69;;;14.45;100.00
57376;BME280;44805;45.048;5.062;2023-05-22T01:56:51;99440.97;;;14.04;100.00
57376;BME280;44805;45.048;5.062;2023-05-22T01:59:31;99424.28;;;13.80;100.00
57376;BME280;44805;45.048;5.062;2023-05-22T02:01:59;99427.47;;;13.76;100.00
57376;BME280;44805;45.048;5.062;2023-05-22T02:04:27;99417.97;;;13.81;100.00
57376;BME280;44805;45.048;5.062;2023-05-22T02:06:56;99485.81;;;14.05;100.00
57376;BME280;44805;45.048;5.062;2023-05-22T02:09:27;99421.06;;;13.70;100.00
57376;BME280;44805;45.048;5.062;2023-05-22T02:11:54;99481.84;;;14.01;100.00
57376;BME280;44805;45.048;5.062;2023-05-22T02:14:19;99450.28;;;13.77;100.00
57376;BME280;44805;45.048;5.062;2023-05-22T02:16:46;99389.16;;;13.40;100.00
57376;BME280;44805;45.048;5.062;2023-05-22T02:19:13;99438.03;;;13.76;100.00
57376;BME280;44805;45.048;5.062;2023-05-22T02:21:39;99464.44;;;13.84;100.00
57376;BME280;44805;45.048;5.062;2023-05-22T02:24:05;99468.75;;;13.85;100.00
57376;BME280;44805;45.048;5.062;2023-05-22T02:26:30;99443.44;;;13.59;100.00
57376;BME280;44805;45.048;5.062;2023-05-22T02:28:56;99383.81;;;13.25;100.00
57376;BME280;44805;45.048;5.062;2023-05-22T02:31:21;99393.00;;;13.38;100.00
57376;BME280;44805;45.048;5.062;2023-05-22T02:33:47;99400.00;;;13.31;100.00
57376;BME280;44805;45.048;5.062;2023-05-22T02:36:12;99357.16;;;13.04;100.00
57376;BME280;44805;45.048;5.062;2023-05-22T02:38:39;99460.03;;;13.76;100.00
57376;BME280;44805;45.048;5.062;2023-05-22T02:41:06;99452.97;;;13.68;100.00
57376;BME280;44805;45.048;5.062;2023-05-22T02:43:31;99387.75;;;13.30;100.00
57376;BME280;44805;45.048;5.062;2023-05-22T02:45:57;99421.56;;;13.42;100.00
57376;BME280;44805;45.048;5.062;2023-05-22T02:48:22;99365.38;;;13.09;100.00
57376;BME280;44805;45.048;5.062;2023-05-22T02:50:48;99418.97;;;13.34;100.00
57376;BME280;44805;45.048;5.062;2023-05-22T02:53:14;99344.50;;;12.91;100.00
57376;BME280;44805;45.048;5.062;2023-05-22T02:55:40;99434.41;;;13.54;100.00
57376;BME280;44805;45.048;5.062;2023-05-22T02:58:06;99442.06;;;13.72;100.00
57376;BME280;44805;45.048;5.062;2023-05-22T03:00:39;99407.00;;;13.46;100.00
57376;BME280;44805;45.048;5.062;2023-05-22T03:03:05;99421.44;;;13.36;100.00
57376;BME280;44805;45.048;5.062;2023-05-22T03:05:32;99444.50;;;13.50;100.00
57376;BME280;44805;45.048;5.062;2023-05-22T03:07:57;99377.56;;;13.18;100.00
57376;BME280;44805;45.048;5.062;2023-05-22T03:10:25;99445.44;;;13.57;100.00
57376;BME280;44805;45.048;5.062;2023-05-22T03:12:51;99399.53;;;13.19;100.00
57376;BME280;44805;45.048;5.062;2023-05-22T03:15:19;99389.97;;;13.18;100.00
57376;BME280;44805;45.048;5.062;2023-05-22T03:17:45;99425.44;;;13.23;100.00
57376;BME280;44805;45.048;5.062;2023-05-22T03:20:13;99343.78;;;12.66;100.00
57376;BME280;44805;45.048;5.062;2023-05-22T03:22:43;99410.66;;;13.06;100.00
57376;BME280;44805;45.048;5.062;2023-05-22T03:25:09;99451.53;;;13.35;100.00
57376;BME280;44805;45.048;5.062;2023-05-22T03:27:35;99417.53;;;13.23;100.00
57376;BME280;44805;45.048;5.062;2023-05-22T03:30:04;99392.22;;;12.98;100.00
57376;BME280;44805;45.048;5.062;2023-05-22T03:32:30;99403.72;;;13.05;100.00
57376;BME280;44805;45.048;5.062;2023-05-22T03:34:55;99342.56;;;12.77;100.00
57376;BME280;44805;45.048;5.062;2023-05-22T03:37:21;99353.53;;;12.97;100.00
57376;BME280;44805;45.048;5.062;2023-05-22T03:39:46;99364.31;;;12.95;100.00
57376;BME280;44805;45.048;5.062;2023-05-22T03:42:11;99389.88;;;13.03;100.00
57376;BME280;44805;45.048;5.062;2023-05-22T03:44:40;99424.31;;;13.18;100.00
57376;BME280;44805;45.048;5.062;2023-05-22T03:47:05;99356.09;;;12.82;100.00
57376;BME280;44805;45.048;5.062;2023-05-22T03:49:31;99362.91;;;12.76;100.00
57376;BME280;44805;45.048;5.062;2023-05-22T03:51:56;99373.09;;;12.88;100.00
57376;BME280;44805;45.048;5.062;2023-05-22T03:54:22;99380.28;;;13.02;100.00
57376;BME280;44805;45.048;5.062;2023-05-22T03:56:48;99407.97;;;13.14;100.00
57376;BME280;44805;45.048;5.062;2023-05-22T03:59:13;99388.34;;;13.09;100.00
57376;BME280;44805;45.048;5.062;2023-05-22T04:01:39;99401.78;;;12.99;100.00
57376;BME280;44805;45.048;5.062;2023-05-22T04:04:05;99399.81;;;12.93;100.00
57376;BME280;44805;45.048;5.062;2023-05-22T04:06:31;99427.19;;;13.08;100.00
57376;BME280;44805;45.048;5.062;2023-05-22T04:08:59;99420.88;;;13.09;100.00
57376;BME280;44805;45.048;5.062;2023-05-22T04:11:25;99438.00;;;13.30;100.00
57376;BME280;44805;45.048;5.062;2023-05-22T04:13:51;99432.06;;;13.28;100.00
57376;BME280;44805;45.048;5.062;2023-05-22T04:16:16;99345.31;;;12.60;100.00
57376;BME280;44805;45.048;5.062;2023-05-22T04:18:42;99396.94;;;13.02;100.00
57376;BME280;44805;45.048;5.062;2023-05-22T04:21:07;99407.72;;;13.01;100.00
57376;BME280;44805;45.048;5.062;2023-05-22T04:23:34;99403.75;;;12.97;100.00
57376;BME280;44805;45.048;5.062;2023-05-22T04:26:00;99430.91;;;13.22;100.00
57376;BME280;44805;45.048;5.062;2023-05-22T04:28:26;99447.41;;;13.32;100.00
57376;BME280;44805;45.048;5.062;2023-05-22T04:30:57;99415.16;;;12.97;100.00
57376;BME280;44805;45.048;5.062;2023-05-22T04:33:22;99345.34;;;12.52;100.00
57376;BME280;44805;45.048;5.062;2023-05-22T04:35:53;99404.41;;;12.99;100.00
57376;BME280;44805;45.048;5.062;2023-05-22T04:38:18;99382.38;;;12.75;100.00
57376;BME280;44805;45.048;5.062;2023-05-22T04:40:44;99382.66;;;12.89;100.00
57376;BME280;44805;45.048;5.062;2023-05-22T04:43:09;99378.69;;;12.93;100.00
57376;BME280;44805;45.048;5.062;2023-05-22T04:45:37;99385.59;;;12.94;100.00
57376;BME280;44805;45.048;5.062;2023-05-22T04:48:03;99391.66;;;13.02;100.00
57376;BME280;44805;45.048;5.062;2023-05-22T04:50:29;99424.25;;;13.34;100.00
57376;BME280;44805;45.048;5.062;2023-05-22T04:52:57;99435.91;;;13.48;100.00
57376;BME280;44805;45.048;5.062;2023-05-22T04:55:24;99402.53;;;13.47;100.00
57376;BME280;44805;45.048;5.062;2023-05-22T04:57:49;99436.69;;;13.80;100.00
57376;BME280;44805;45.048;5.062;2023-05-22T05:00:17;99464.50;;;13.99;100.00
57376;BME280;44805;45.048;5.062;2023-05-22T05:02:42;99443.09;;;13.85;100.00
57376;BME280;44805;45.048;5.062;2023-05-22T05:05:08;99486.09;;;14.10;100.00
57376;BME280;44805;45.048;5.062;2023-05-22T05:07:41;99375.84;;;13.34;100.00
57376;BME280;44805;45.048;5.062;2023-05-22T05:10:07;99414.16;;;13.61;100.00
57376;BME280;44805;45.048;5.062;2023-05-22T05:12:33;99393.88;;;13.53;100.00
57376;BME280;44805;45.048;5.062;2023-05-22T05:14:59;99414.13;;;13.69;100.00
57376;BME280;44805;45.048;5.062;2023-05-22T05:17:24;99427.06;;;13.87;100.00
57376;BME280;44805;45.048;5.062;2023-05-22T05:19:50;99399.13;;;13.84;100.00
57376;BME280;44805;45.048;5.062;2023-05-22T05:22:15;99454.13;;;14.35;100.00
57376;BME280;44805;45.048;5.062;2023-05-22T05:24:40;99411.97;;;14.10;100.00
57376;BME280;44805;45.048;5.062;2023-05-22T05:27:06;99461.25;;;14.49;100.00
57376;BME280;44805;45.048;5.062;2023-05-22T05:29:31;99426.53;;;14.44;100.00
57376;BME280;44805;45.048;5.062;2023-05-22T05:31:57;99498.16;;;14.89;100.00
57376;BME280;44805;45.048;5.062;2023-05-22T05:34:22;99372.09;;;14.27;100.00
57376;BME280;44805;45.048;5.062;2023-05-22T05:36:48;99396.69;;;14.50;100.00
57376;BME280;44805;45.048;5.062;2023-05-22T05:39:13;99466.41;;;14.95;100.00
57376;BME280;44805;45.048;5.062;2023-05-22T05:41:39;99458.94;;;14.84;100.00
57376;BME280;44805;45.048;5.062;2023-05-22T05:44:04;99448.88;;;14.65;100.00
57376;BME280;44805;45.048;5.062;2023-05-22T05:46:29;99451.00;;;14.84;100.00
57376;BME280;44805;45.048;5.062;2023-05-22T05:48:56;99449.78;;;15.02;100.00
57376;BME280;44805;45.048;5.062;2023-05-22T05:51:22;99402.72;;;14.89;100.00
57376;BME280;44805;45.048;5.062;2023-05-22T05:53:47;99419.34;;;14.97;100.00
57376;BME280;44805;45.048;5.062;2023-05-22T05:56:16;99465.13;;;15.21;100.00
57376;BME280;44805;45.048;5.062;2023-05-22T05:58:42;99420.53;;;14.80;100.00
57376;BME280;44805;45.048;5.062;2023-05-22T06:01:07;99405.19;;;14.90;100.00
57376;BME280;44805;45.048;5.062;2023-05-22T06:03:32;99389.53;;;14.95;100.00
57376;BME280;44805;45.048;5.062;2023-05-22T06:06:00;99427.66;;;15.24;100.00
57376;BME280;44805;45.048;5.062;2023-05-22T06:08:27;99469.03;;;15.40;100.00
57376;BME280;44805;45.048;5.062;2023-05-22T06:10:52;99382.50;;;14.88;100.00
57376;BME280;44805;45.048;5.062;2023-05-22T06:13:18;99494.22;;;15.66;100.00
57376;BME280;44805;45.048;5.062;2023-05-22T06:15:43;99472.34;;;15.63;100.00
57376;BME280;44805;45.048;5.062;2023-05-22T06:18:09;99429.03;;;15.41;100.00
57376;BME280;44805;45.048;5.062;2023-05-22T06:20:35;99450.69;;;15.60;100.00
57376;BME280;44805;45.048;5.062;2023-05-22T06:23:00;99489.72;;;16.02;100.00
57376;BME280;44805;45.048;5.062;2023-05-22T06:25:26;99430.63;;;15.72;100.00
57376;BME280;44805;45.048;5.062;2023-05-22T06:27:54;99471.97;;;16.03;100.00
57376;BME280;44805;45.048;5.062;2023-05-22T06:30:19;99497.13;;;16.28;100.00
57376;BME280;44805;45.048;5.062;2023-05-22T06:32:45;99454.88;;;16.12;100.00
57376;BME280;44805;45.048;5.062;2023-05-22T06:35:10;99453.97;;;16.26;100.00
57376;BME280;44805;45.048;5.062;2023-05-22T06:37:36;99461.88;;;16.20;99.92
57376;BME280;44805;45.048;5.062;2023-05-22T06:40:04;99491.38;;;16.53;100.00
57376;BME280;44805;45.048;5.062;2023-05-22T06:42:34;99520.09;;;16.64;100.00
57376;BME280;44805;45.048;5.062;2023-05-22T06:45:00;99520.34;;;16.69;98.90
57376;BME280;44805;45.048;5.062;2023-05-22T06:47:25;99425.41;;;16.28;97.96
57376;BME280;44805;45.048;5.062;2023-05-22T06:49:51;99469.03;;;16.69;97.16
57376;BME280;44805;45.048;5.062;2023-05-22T06:52:16;99448.91;;;16.60;95.89
57376;BME280;44805;45.048;5.062;2023-05-22T06:54:42;99534.34;;;17.13;95.25
57376;BME280;44805;45.048;5.062;2023-05-22T06:57:09;99507.16;;;17.18;93.93
57376;BME280;44805;45.048;5.062;2023-05-22T06:59:34;99433.63;;;16.68;93.39
57376;BME280;44805;45.048;5.062;2023-05-22T07:02:00;99523.69;;;17.54;93.08
57376;BME280;44805;45.048;5.062;2023-05-22T07:04:25;99500.72;;;17.47;91.90
57376;BME280;44805;45.048;5.062;2023-05-22T07:06:51;99516.34;;;17.56;90.74
57376;BME280;44805;45.048;5.062;2023-05-22T07:09:18;99429.56;;;17.07;91.84
57376;BME280;44805;45.048;5.062;2023-05-22T07:11:44;99512.91;;;17.69;92.99
57376;BME280;44805;45.048;5.062;2023-05-22T07:14:10;99450.13;;;17.40;92.92
57376;BME280;44805;45.048;5.062;2023-05-22T07:16:39;99461.69;;;17.61;90.51
57376;BME280;44805;45.048;5.062;2023-05-22T07:19:05;99533.53;;;18.15;92.18
57376;BME280;44805;45.048;5.062;2023-05-22T07:21:33;99481.56;;;17.78;90.45
57376;BME280;44805;45.048;5.062;2023-05-22T07:24:00;99443.22;;;17.46;93.04
57376;BME280;44805;45.048;5.062;2023-05-22T07:26:27;99541.69;;;18.00;92.59
57376;BME280;44805;45.048;5.062;2023-05-22T07:28:54;99478.50;;;17.74;92.04
57376;BME280;44805;45.048;5.062;2023-05-22T07:31:19;99481.97;;;17.75;92.78
57376;BME280;44805;45.048;5.062;2023-05-22T07:33:45;99478.34;;;17.83;92.67
57376;BME280;44805;45.048;5.062;2023-05-22T07:36:10;99498.66;;;17.97;91.77
57376;BME280;44805;45.048;5.062;2023-05-22T07:38:35;99469.56;;;17.89;89.33
57376;BME280;44805;45.048;5.062;2023-05-22T07:41:01;99471.00;;;18.05;86.26
57376;BME280;44805;45.048;5.062;2023-05-22T07:43:29;99473.28;;;18.14;87.52
57376;BME280;44805;45.048;5.062;2023-05-22T07:45:55;99476.97;;;18.20;86.11
57376;BME280;44805;45.048;5.062;2023-05-22T07:48:20;99463.00;;;18.18;85.54
57376;BME280;44805;45.048;5.062;2023-05-22T07:50:45;99540.09;;;18.66;85.87
57376;BME280;44805;45.048;5.062;2023-05-22T07:53:11;99478.38;;;18.49;83.64
57376;BME280;44805;45.048;5.062;2023-05-22T07:55:37;99535.63;;;18.93;85.72
57376;BME280;44805;45.048;5.062;2023-05-22T07:58:03;99510.41;;;18.76;86.02
57376;BME280;44805;45.048;5.062;2023-05-22T08:00:29;99533.94;;;18.99;85.71
57376;BME280;44805;45.048;5.062;2023-05-22T08:02:55;99512.19;;;19.02;84.76
57376;BME280;44805;45.048;5.062;2023-05-22T08:05:21;99468.31;;;18.84;85.98
57376;BME280;44805;45.048;5.062;2023-05-22T08:07:46;99549.03;;;19.38;85.37
57376;BME280;44805;45.048;5.062;2023-05-22T08:10:13;99542.00;;;19.50;85.27
57376;BME280;44805;45.048;5.062;2023-05-22T08:12:39;99513.31;;;19.39;85.30
57376;BME280;44805;45.048;5.062;2023-05-22T08:15:05;99481.53;;;19.24;84.73
57376;BME280;44805;45.048;5.062;2023-05-22T08:17:31;99480.28;;;19.34;85.29
57376;BME280;44805;45.048;5.062;2023-05-22T08:19:57;99524.88;;;19.71;85.52
57376;BME280;44805;45.048;5.062;2023-05-22T08:22:22;99461.91;;;19.50;84.14
57376;BME280;44805;45.048;5.062;2023-05-22T08:24:48;99507.50;;;19.94;85.03
57376;BME280;44805;45.048;5.062;2023-05-22T08:27:13;99443.75;;;19.66;83.92
57376;BME280;44805;45.048;5.062;2023-05-22T08:29:38;99471.03;;;20.06;83.60
57376;BME280;44805;45.048;5.062;2023-05-22T08:32:04;99470.34;;;20.17;82.56
57376;BME280;44805;45.048;5.062;2023-05-22T08:34:30;99441.75;;;19.93;83.01
57376;BME280;44805;45.048;5.062;2023-05-22T08:36:57;99473.69;;;20.38;82.38
57376;BME280;44805;45.048;5.062;2023-05-22T08:39:23;99460.91;;;20.65;82.90
57376;BME280;44805;45.048;5.062;2023-05-22T08:41:49;99472.72;;;20.76;81.46
57376;BME280;44805;45.048;5.062;2023-05-22T08:44:15;99444.28;;;21.00;80.75
57376;BME280;44805;45.048;5.062;2023-05-22T08:46:40;99477.78;;;21.39;79.32
57376;BME280;44805;45.048;5.062;2023-05-22T08:49:08;99446.53;;;21.33;80.53
57376;BME280;44805;45.048;5.062;2023-05-22T08:51:39;99490.41;;;22.11;77.15
57376;BME280;44805;45.048;5.062;2023-05-22T08:54:05;99491.44;;;22.10;78.16
57376;BME280;44805;45.048;5.062;2023-05-22T08:56:32;99466.59;;;22.03;78.18
57376;BME280;44805;45.048;5.062;2023-05-22T08:58:59;99449.16;;;22.12;76.07
57376;BME280;44805;45.048;5.062;2023-05-22T09:01:26;99456.75;;;22.39;75.83
57376;BME280;44805;45.048;5.062;2023-05-22T09:03:52;99533.91;;;22.90;76.07
57376;BME280;44805;45.048;5.062;2023-05-22T09:06:18;99454.56;;;22.24;75.29
57376;BME280;44805;45.048;5.062;2023-05-22T09:08:43;99444.19;;;22.27;76.37
57376;BME280;44805;45.048;5.062;2023-05-22T09:11:08;99489.56;;;22.88;73.46
57376;BME280;44805;45.048;5.062;2023-05-22T09:13:38;99449.78;;;22.38;74.41
57376;BME280;44805;45.048;5.062;2023-05-22T09:16:08;99532.03;;;22.56;75.76
57376;BME280;44805;45.048;5.062;2023-05-22T09:18:35;99485.81;;;22.30;75.69
57376;BME280;44805;45.048;5.062;2023-05-22T09:21:02;99490.94;;;22.31;76.78
57376;BME280;44805;45.048;5.062;2023-05-22T09:23:28;99494.34;;;22.50;75.49
57376;BME280;44805;45.048;5.062;2023-05-22T09:25:59;99517.44;;;22.87;74.00
57376;BME280;44805;45.048;5.062;2023-05-22T09:28:50;99532.28;;;23.53;72.35
57376;BME280;44805;45.048;5.062;2023-05-22T09:31:15;99514.66;;;23.46;69.38
57376;BME280;44805;45.048;5.062;2023-05-22T09:33:44;99543.72;;;23.08;71.72
57376;BME280;44805;45.048;5.062;2023-05-22T09:36:10;99490.34;;;23.24;70.06
57376;BME280;44805;45.048;5.062;2023-05-22T09:38:36;99498.97;;;23.66;69.45
57376;BME280;44805;45.048;5.062;2023-05-22T09:41:01;99502.44;;;23.78;70.18
57376;BME280;44805;45.048;5.062;2023-05-22T09:43:48;99525.56;;;23.39;70.91
57376;BME280;44805;45.048;5.062;2023-05-22T09:46:15;99453.50;;;22.84;71.65
57376;BME280;44805;45.048;5.062;2023-05-22T09:48:50;99445.81;;;22.75;72.94
57376;BME280;44805;45.048;5.062;2023-05-22T09:51:16;99527.47;;;22.91;72.72
57376;BME280;44805;45.048;5.062;2023-05-22T09:53:43;99489.25;;;23.36;72.29
57376;BME280;44805;45.048;5.062;2023-05-22T09:56:12;99487.16;;;23.79;71.08
57376;BME280;44805;45.048;5.062;2023-05-22T09:58:40;99505.41;;;23.53;69.88
57376;BME280;44805;45.048;5.062;2023-05-22T10:01:07;99468.97;;;23.29;69.51
57376;BME280;44805;45.048;5.062;2023-05-22T10:03:36;99461.28;;;23.21;68.90
57376;BME280;44805;45.048;5.062;2023-05-22T10:06:04;99495.63;;;23.88;69.22
57376;BME280;44805;45.048;5.062;2023-05-22T10:08:36;99477.69;;;23.93;68.46
57376;BME280;44805;45.048;5.062;2023-05-22T10:11:03;99443.06;;;23.68;66.79
57376;BME280;44805;45.048;5.062;2023-05-22T10:14:04;99507.56;;;24.25;65.63
57376;BME280;44805;45.048;5.062;2023-05-22T10:16:34;99484.16;;;24.09;64.03
57376;BME280;44805;45.048;5.062;2023-05-22T10:19:02;99485.53;;;24.79;61.98
57376;BME280;44805;45.048;5.062;2023-05-22T10:21:29;99455.81;;;25.13;61.23
57376;BME280;44805;45.048;5.062;2023-05-22T10:23:56;99494.00;;;25.27;59.32
57376;BME280;44805;45.048;5.062;2023-05-22T10:26:23;99451.88;;;25.43;60.16
57376;BME280;44805;45.048;5.062;2023-05-22T10:32:02;99483.69;;;25.46;58.96
57376;BME280;44805;45.048;5.062;2023-05-22T10:34:34;99478.38;;;25.51;57.65
57376;BME280;44805;45.048;5.062;2023-05-22T10:37:40;99413.28;;;24.37;58.95
57376;BME280;44805;45.048;5.062;2023-05-22T10:40:08;99463.72;;;24.59;60.76
57376;BME280;44805;45.048;5.062;2023-05-22T10:42:36;99470.63;;;24.72;60.24
57376;BME280;44805;45.048;5.062;2023-05-22T10:45:02;99459.66;;;25.17;58.30
57376;BME280;44805;45.048;5.062;2023-05-22T10:47:32;99440.41;;;25.30;58.47
57376;BME280;44805;45.048;5.062;2023-05-22T10:50:03;99421.75;;;25.51;56.68
57376;BME280;44805;45.048;5.062;2023-05-22T10:52:28;99393.53;;;25.59;57.35
57376;BME280;44805;45.048;5.062;2023-05-22T10:54:55;99408.84;;;25.53;55.84
57376;BME280;44805;45.048;5.062;2023-05-22T10:57:23;99384.59;;;25.04;54.61
57376;BME280;44805;45.048;5.062;2023-05-22T10:59:49;99417.13;;;25.46;53.51
57376;BME280;44805;45.048;5.062;2023-05-22T11:02:24;99457.88;;;25.77;53.69
57376;BME280;44805;45.048;5.062;2023-05-22T11:07:43;99433.47;;;25.89;53.48
57376;BME280;44805;45.048;5.062;2023-05-22T11:10:08;99438.75;;;26.06;53.50
57376;BME280;44805;45.048;5.062;2023-05-22T11:12:34;99440.97;;;26.51;54.44
57376;BME280;44805;45.048;5.062;2023-05-22T11:15:07;99414.41;;;26.38;53.28
57376;BME280;44805;45.048;5.062;2023-05-22T11:17:46;99401.66;;;25.91;54.73
57376;BME280;44805;45.048;5.062;2023-05-22T11:20:22;99432.34;;;25.58;55.56
57376;BME280;44805;45.048;5.062;2023-05-22T11:22:56;99409.81;;;24.98;55.92
57376;BME280;44805;45.048;5.062;2023-05-22T11:25:23;99432.63;;;24.90;55.93
57376;BME280;44805;45.048;5.062;2023-05-22T11:28:09;99437.81;;;24.75;57.63
57376;BME280;44805;45.048;5.062;2023-05-22T11:30:36;99389.81;;;24.88;56.32
57376;BME280;44805;45.048;5.062;2023-05-22T11:33:03;99367.72;;;25.36;55.12
57376;BME280;44805;45.048;5.062;2023-05-22T11:35:30;99381.09;;;25.85;53.95
57376;BME280;44805;45.048;5.062;2023-05-22T11:37:55;99361.28;;;26.01;52.75
57376;BME280;44805;45.048;5.062;2023-05-22T11:40:22;99399.50;;;25.88;53.17
57376;BME280;44805;45.048;5.062;2023-05-22T11:42:49;99337.09;;;24.98;54.22
57376;BME280;44805;45.048;5.062;2023-05-22T11:45:15;99381.69;;;25.32;52.86
57376;BME280;44805;45.048;5.062;2023-05-22T11:47:42;99398.38;;;25.29;54.60
57376;BME280;44805;45.048;5.062;2023-05-22T11:50:10;99389.41;;;25.24;55.18
57376;BME280;44805;45.048;5.062;2023-05-22T11:52:38;99352.97;;;24.94;56.87
57376;BME280;44805;45.048;5.062;2023-05-22T11:55:04;99401.44;;;25.16;58.21
57376;BME280;44805;45.048;5.062;2023-05-22T11:57:30;99335.22;;;25.20;57.54
57376;BME280;44805;45.048;5.062;2023-05-22T11:59:57;99353.00;;;25.48;57.17
57376;BME280;44805;45.048;5.062;2023-05-22T12:02:23;99345.63;;;25.39;57.12
57376;BME280;44805;45.048;5.062;2023-05-22T12:04:58;99356.63;;;25.64;56.37
57376;BME280;44805;45.048;5.062;2023-05-22T12:07:24;99323.94;;;25.55;55.29
57376;BME280;44805;45.048;5.062;2023-05-22T12:09:50;99349.16;;;26.04;53.86
57376;BME280;44805;45.048;5.062;2023-05-22T12:12:16;99366.31;;;26.30;52.69
57376;BME280;44805;45.048;5.062;2023-05-22T12:14:44;99356.66;;;26.39;53.76
57376;BME280;44805;45.048;5.062;2023-05-22T12:17:15;99377.06;;;26.62;52.83
57376;BME280;44805;45.048;5.062;2023-05-22T12:19:42;99356.09;;;26.37;50.35
57376;BME280;44805;45.048;5.062;2023-05-22T12:22:08;99367.06;;;26.62;51.71
57376;BME280;44805;45.048;5.062;2023-05-22T12:24:41;99322.63;;;26.38;50.88
57376;BME280;44805;45.048;5.062;2023-05-22T12:30:41;99335.53;;;26.83;48.92
57376;BME280;44805;45.048;5.062;2023-05-22T12:33:11;99294.78;;;26.95;47.87
57376;BME280;44805;45.048;5.062;2023-05-22T12:35:38;99316.44;;;27.16;48.56
57376;BME280;44805;45.048;5.062;2023-05-22T12:38:06;99319.94;;;27.11;50.74
57376;BME280;44805;45.048;5.062;2023-05-22T12:40:31;99332.25;;;26.18;52.96
57376;BME280;44805;45.048;5.062;2023-05-22T12:42:57;99356.78;;;26.17;53.10
57376;BME280;44805;45.048;5.062;2023-05-22T12:45:22;99356.59;;;26.29;52.46
57376;BME280;44805;45.048;5.062;2023-05-22T12:47:47;99306.50;;;25.95;51.70
57376;BME280;44805;45.048;5.062;2023-05-22T12:50:13;99267.75;;;25.80;52.24
57376;BME280;44805;45.048;5.062;2023-05-22T12:52:38;99319.53;;;25.76;53.04
57376;BME280;44805;45.048;5.062;2023-05-22T12:55:04;99303.84;;;25.68;52.32
57376;BME280;44805;45.048;5.062;2023-05-22T12:57:30;99265.34;;;25.41;52.81
57376;BME280;44805;45.048;5.062;2023-05-22T12:59:55;99277.56;;;25.53;52.45
57376;BME280;44805;45.048;5.062;2023-05-22T13:02:21;99269.03;;;25.29;53.01
57376;BME280;44805;45.048;5.062;2023-05-22T13:04:46;99267.38;;;25.28;52.19
57376;BME280;44805;45.048;5.062;2023-05-22T13:07:12;99276.94;;;25.41;52.12
57376;BME280;44805;45.048;5.062;2023-05-22T13:09:37;99284.72;;;25.70;52.53
57376;BME280;44805;45.048;5.062;2023-05-22T13:12:03;99279.97;;;25.87;51.09